createdAt,value
2022-10-06T00:01:40.668Z,5.61
2022-10-06T00:04:08.303Z,5.64
2022-10-06T00:06:35.276Z,5.55
2022-10-06T00:09:02.685Z,5.66
2022-10-06T00:11:29.690Z,5.66
2022-10-06T00:13:59.703Z,5.69
2022-10-06T00:16:27.173Z,5.64
2022-10-06T00:18:54.527Z,5.45
2022-10-06T00:21:21.682Z,5.46
2022-10-06T00:23:48.652Z,5.61
2022-10-06T00:26:17.384Z,5.56
2022-10-06T00:28:47.787Z,5.57
2022-10-06T00:31:16.417Z,5.46
2022-10-06T00:33:43.723Z,5.54
2022-10-06T00:36:11.002Z,5.29
2022-10-06T00:38:38.302Z,5.19
2022-10-06T00:41:05.576Z,5.28
2022-10-06T00:43:43.766Z,5.32
2022-10-06T00:46:35.351Z,5.31
2022-10-06T00:49:18.087Z,5.31
2022-10-06T00:52:13.889Z,5.08
2022-10-06T00:54:41.814Z,5.13
2022-10-06T00:57:09.345Z,5.00
2022-10-06T00:59:37.824Z,5.10
2022-10-06T01:02:14.139Z,5.16
2022-10-06T01:04:46.809Z,5.20
2022-10-06T01:07:14.381Z,5.00
2022-10-06T01:09:41.834Z,4.97
2022-10-06T01:12:09.480Z,5.04
2022-10-06T01:14:39.501Z,4.97
2022-10-06T01:17:14.451Z,4.82
2022-10-06T01:19:57.511Z,5.07
2022-10-06T01:22:31.959Z,5.07
2022-10-06T01:24:59.303Z,4.98
2022-10-06T01:27:30.134Z,4.92
2022-10-06T01:29:58.267Z,5.09
2022-10-06T01:32:28.160Z,4.92
2022-10-06T01:34:56.273Z,4.97
2022-10-06T01:37:23.550Z,4.87
2022-10-06T01:39:50.573Z,4.93
2022-10-06T01:42:17.545Z,4.75
2022-10-06T01:44:44.750Z,4.83
2022-10-06T01:47:12.089Z,5.06
2022-10-06T01:49:39.262Z,4.99
2022-10-06T01:52:06.785Z,4.79
2022-10-06T01:54:33.920Z,4.90
2022-10-06T01:57:00.926Z,4.97
2022-10-06T01:59:27.981Z,4.79
2022-10-06T02:01:55.264Z,4.75
2022-10-06T02:04:22.468Z,4.60
2022-10-06T02:06:50.961Z,4.63
2022-10-06T02:09:18.760Z,4.70
2022-10-06T02:11:45.709Z,4.43
2022-10-06T02:14:13.575Z,4.86
2022-10-06T02:16:40.868Z,4.63
2022-10-06T02:19:08.053Z,4.69
2022-10-06T02:21:35.919Z,4.78
2022-10-06T02:24:03.241Z,4.65
2022-10-06T02:26:30.788Z,4.70
2022-10-06T02:28:57.930Z,4.63
2022-10-06T02:31:25.565Z,4.67
2022-10-06T02:33:53.053Z,4.63
2022-10-06T02:36:20.362Z,4.60
2022-10-06T02:38:47.397Z,4.70
2022-10-06T02:41:14.613Z,4.61
2022-10-06T02:43:41.832Z,4.56
2022-10-06T02:46:12.984Z,4.74
2022-10-06T02:48:40.957Z,4.71
2022-10-06T02:51:12.395Z,4.71
2022-10-06T02:53:40.264Z,4.58
2022-10-06T02:56:11.165Z,4.56
2022-10-06T02:58:43.033Z,4.59
2022-10-06T03:01:12.883Z,4.62
2022-10-06T03:03:40.275Z,4.54
2022-10-06T03:06:22.882Z,4.63
2022-10-06T03:09:01.441Z,4.47
2022-10-06T03:11:31.574Z,4.52
2022-10-06T03:13:59.268Z,4.53
2022-10-06T03:16:32.240Z,4.63
2022-10-06T03:19:00.686Z,4.74
2022-10-06T03:21:30.245Z,4.64
2022-10-06T03:23:59.225Z,4.56
2022-10-06T03:26:29.315Z,4.55
2022-10-06T03:29:48.166Z,4.40
2022-10-06T03:32:15.720Z,4.39
2022-10-06T03:34:43.134Z,4.21
2022-10-06T03:37:10.647Z,4.28
2022-10-06T03:39:37.909Z,4.49
2022-10-06T03:42:05.364Z,4.43
2022-10-06T03:44:35.244Z,4.55
2022-10-06T03:47:02.889Z,4.07
2022-10-06T03:49:29.959Z,4.27
2022-10-06T03:51:57.816Z,4.43
2022-10-06T03:54:24.767Z,4.48
2022-10-06T03:57:23.647Z,4.45
2022-10-06T04:00:00.941Z,4.48
2022-10-06T04:02:38.519Z,4.41
2022-10-06T04:05:09.668Z,4.31
2022-10-06T04:07:36.725Z,4.31
2022-10-06T04:10:04.176Z,4.22
2022-10-06T04:12:31.450Z,4.45
2022-10-06T04:15:00.265Z,4.22
2022-10-06T04:17:27.294Z,4.42
2022-10-06T04:19:54.307Z,4.23
2022-10-06T04:22:21.378Z,4.29
2022-10-06T04:24:48.614Z,4.40
2022-10-06T04:27:34.757Z,4.37
2022-10-06T04:30:01.811Z,4.11
2022-10-06T04:32:30.102Z,4.18
2022-10-06T04:34:57.259Z,4.43
2022-10-06T04:37:24.310Z,4.28
2022-10-06T04:39:51.270Z,4.22
2022-10-06T04:42:18.222Z,4.33
2022-10-06T04:44:45.627Z,4.48
2022-10-06T04:47:12.913Z,4.63
2022-10-06T04:49:39.850Z,4.60
2022-10-06T04:52:07.200Z,4.64
2022-10-06T04:54:34.380Z,4.68
2022-10-06T04:57:01.412Z,4.73
2022-10-06T04:59:54.682Z,4.76
2022-10-06T05:02:21.852Z,4.87
2022-10-06T05:04:51.379Z,5.01
2022-10-06T05:07:18.680Z,5.10
2022-10-06T05:09:45.611Z,5.07
2022-10-06T05:12:12.602Z,5.06
2022-10-06T05:14:39.577Z,5.16
2022-10-06T05:17:06.730Z,5.09
2022-10-06T05:19:33.704Z,5.14
2022-10-06T05:22:00.975Z,5.18
2022-10-06T05:24:51.817Z,5.21
2022-10-06T05:27:19.084Z,5.32
2022-10-06T05:29:46.170Z,5.41
2022-10-06T05:32:13.160Z,5.35
2022-10-06T05:34:40.162Z,5.48
2022-10-06T05:37:07.114Z,5.43
2022-10-06T05:39:34.336Z,5.63
2022-10-06T05:42:01.524Z,5.72
2022-10-06T05:44:28.698Z,5.74
2022-10-06T05:46:55.558Z,5.91
2022-10-06T05:49:22.675Z,5.91
2022-10-06T05:51:49.653Z,6.03
2022-10-06T05:54:16.947Z,6.16
2022-10-06T05:56:44.430Z,6.35
2022-10-06T05:59:11.928Z,6.42
2022-10-06T06:01:44.027Z,6.74
2022-10-06T06:04:12.967Z,7.09
2022-10-06T06:06:41.533Z,7.53
2022-10-06T06:09:17.021Z,7.73
2022-10-06T06:11:47.056Z,8.16
2022-10-06T06:14:41.217Z,8.64
2022-10-06T06:17:08.476Z,8.85
2022-10-06T06:19:35.703Z,9.27
2022-10-06T06:22:02.711Z,9.52
2022-10-06T06:24:29.936Z,9.89
2022-10-06T06:26:56.833Z,10.26
2022-10-06T06:29:24.545Z,10.57
2022-10-06T06:31:51.937Z,10.57
2022-10-06T06:34:18.804Z,10.80
2022-10-06T06:36:47.825Z,11.12
2022-10-06T06:39:24.314Z,11.41
2022-10-06T06:41:51.495Z,11.69
2022-10-06T06:44:19.181Z,12.00
2022-10-06T06:46:49.421Z,12.17
2022-10-06T06:49:17.171Z,12.38
2022-10-06T06:51:50.372Z,12.54
2022-10-06T06:54:18.471Z,12.85
2022-10-06T06:56:46.906Z,12.78
2022-10-06T06:59:14.132Z,13.12
2022-10-06T07:01:44.778Z,13.26
2022-10-06T07:04:14.075Z,13.63
2022-10-06T07:06:42.496Z,13.82
2022-10-06T07:09:14.720Z,13.70
2022-10-06T07:11:42.086Z,14.13
2022-10-06T07:14:12.911Z,14.23
2022-10-06T07:16:58.490Z,14.50
2022-10-06T07:19:44.478Z,14.77
2022-10-06T07:22:30.097Z,15.15
2022-10-06T07:25:08.219Z,15.15
2022-10-06T07:27:45.122Z,15.25
2022-10-06T07:30:22.153Z,15.59
2022-10-06T07:32:51.035Z,15.76
2022-10-06T07:35:21.442Z,15.99
2022-10-06T07:37:49.775Z,16.17
2022-10-06T07:40:17.849Z,16.12
2022-10-06T07:42:53.890Z,16.52
2022-10-06T07:45:39.462Z,16.60
2022-10-06T07:48:26.186Z,16.73
2022-10-06T07:50:53.664Z,17.16
2022-10-06T07:53:20.917Z,17.22
2022-10-06T07:55:48.703Z,17.18
2022-10-06T07:58:16.813Z,17.65
2022-10-06T08:00:45.932Z,17.64
2022-10-06T08:03:18.444Z,17.95
2022-10-06T08:05:47.026Z,18.12
2022-10-06T08:08:15.127Z,18.33
2022-10-06T08:10:42.916Z,18.55
2022-10-06T08:13:10.646Z,18.69
2022-10-06T08:15:37.954Z,18.55
2022-10-06T08:18:12.415Z,18.60
2022-10-06T08:20:43.682Z,18.53
2022-10-06T08:23:12.367Z,18.73
2022-10-06T08:25:43.571Z,19.07
2022-10-06T08:28:12.078Z,19.17
2022-10-06T08:30:40.214Z,19.36
2022-10-06T08:33:07.458Z,19.40
2022-10-06T08:35:36.437Z,19.18
2022-10-06T08:38:03.627Z,19.28
2022-10-06T08:40:30.904Z,19.68
2022-10-06T08:43:01.294Z,19.36
2022-10-06T08:45:38.651Z,19.36
2022-10-06T08:48:30.372Z,19.63
2022-10-06T08:51:20.477Z,19.72
2022-10-06T08:54:10.959Z,19.79
2022-10-06T08:57:06.032Z,19.70
2022-10-06T08:59:35.604Z,19.45
2022-10-06T09:02:07.113Z,19.55
2022-10-06T09:04:35.018Z,19.70
2022-10-06T09:07:12.738Z,19.48
2022-10-06T09:10:01.684Z,19.85
2022-10-06T09:12:54.905Z,19.77
2022-10-06T09:15:38.595Z,19.87
2022-10-06T09:18:22.477Z,19.84
2022-10-06T09:21:00.761Z,19.75
2022-10-06T09:23:47.826Z,19.49
2022-10-06T09:26:19.340Z,19.41
2022-10-06T09:28:46.753Z,19.58
2022-10-06T09:31:28.713Z,19.76
2022-10-06T09:34:07.271Z,19.82
2022-10-06T09:37:02.319Z,19.72
2022-10-06T09:39:38.742Z,20.02
2022-10-06T09:42:11.556Z,20.12
2022-10-06T09:45:06.394Z,20.13
2022-10-06T09:47:47.048Z,20.11
2022-10-06T09:50:23.629Z,20.41
2022-10-06T09:53:03.592Z,20.47
2022-10-06T09:55:34.128Z,20.60
2022-10-06T09:58:01.963Z,20.36
2022-10-06T10:00:31.484Z,20.46
2022-10-06T10:03:03.014Z,20.15
2022-10-06T10:05:33.873Z,20.44
2022-10-06T10:08:30.150Z,20.58
2022-10-06T10:11:27.765Z,20.73
2022-10-06T10:14:00.163Z,20.59
2022-10-06T10:16:36.452Z,20.66
2022-10-06T10:19:06.188Z,20.82
2022-10-06T10:21:35.921Z,20.70
2022-10-06T10:24:15.191Z,20.59
2022-10-06T10:26:55.610Z,20.72
2022-10-06T10:29:59.733Z,20.83
2022-10-06T10:32:40.663Z,20.94
2022-10-06T10:35:26.881Z,20.84
2022-10-06T10:38:14.599Z,20.84
2022-10-06T10:40:48.918Z,20.80
2022-10-06T10:43:39.990Z,20.76
2022-10-06T10:46:14.280Z,20.83
2022-10-06T10:49:04.196Z,20.97
2022-10-06T10:51:37.169Z,21.05
2022-10-06T10:54:05.619Z,21.08
2022-10-06T10:56:34.290Z,21.03
2022-10-06T10:59:38.148Z,20.79
2022-10-06T11:02:13.933Z,20.78
2022-10-06T11:04:49.777Z,20.95
2022-10-06T11:07:31.427Z,20.83
2022-10-06T11:10:07.914Z,20.97
2022-10-06T11:12:40.550Z,20.98
2022-10-06T11:15:43.404Z,21.07
2022-10-06T11:18:26.415Z,21.09
2022-10-06T11:21:21.700Z,20.98
2022-10-06T11:23:51.391Z,21.00
2022-10-06T11:26:35.848Z,20.94
2022-10-06T11:29:33.619Z,21.16
2022-10-06T11:32:24.962Z,21.26
2022-10-06T11:34:52.974Z,21.23
2022-10-06T11:37:45.301Z,21.28
2022-10-06T11:40:32.653Z,21.31
2022-10-06T11:43:09.262Z,21.29
2022-10-06T11:46:05.842Z,21.35
2022-10-06T11:48:33.510Z,21.29
2022-10-06T11:51:25.133Z,21.16
2022-10-06T11:53:53.444Z,20.99
2022-10-06T11:56:20.289Z,21.09
2022-10-06T11:58:56.063Z,20.99
2022-10-06T12:01:34.807Z,20.98
2022-10-06T12:04:10.942Z,20.97
2022-10-06T12:06:45.140Z,20.94
2022-10-06T12:09:25.044Z,20.82
2022-10-06T12:12:19.226Z,20.99
2022-10-06T12:18:05.196Z,21.01
2022-10-06T12:20:51.036Z,21.05
2022-10-06T12:23:37.885Z,20.82
2022-10-06T13:35:32.047Z,19.96
2022-10-06T13:38:17.284Z,19.89
2022-10-06T13:44:43.622Z,19.85
2022-10-06T14:06:09.573Z,19.77
2022-10-06T14:08:37.318Z,19.80
2022-10-06T14:11:07.432Z,19.87
2022-10-06T14:13:56.711Z,19.79
2022-10-06T14:16:25.691Z,19.80
2022-10-06T14:21:39.495Z,19.57
2022-10-06T14:24:41.166Z,19.51
2022-10-06T14:27:08.378Z,19.47
2022-10-06T14:29:38.097Z,19.39
2022-10-06T14:32:13.370Z,19.28
2022-10-06T14:34:41.194Z,19.18
2022-10-06T14:37:18.357Z,19.11
2022-10-06T14:39:46.065Z,19.04
2022-10-06T14:42:15.807Z,18.89
2022-10-06T14:44:43.400Z,18.83
2022-10-06T14:47:10.711Z,18.74
2022-10-06T14:49:38.246Z,18.65
2022-10-06T14:52:06.136Z,18.52
2022-10-06T14:54:34.840Z,18.42
2022-10-06T14:57:02.092Z,18.30
2022-10-06T14:59:28.960Z,18.13
2022-10-06T15:01:55.889Z,17.96
2022-10-06T15:04:27.978Z,17.83
2022-10-06T15:07:14.002Z,17.75
2022-10-06T15:09:40.959Z,17.53
2022-10-06T15:12:07.950Z,17.42
2022-10-06T15:14:40.152Z,17.30
2022-10-06T15:17:07.896Z,17.16
2022-10-06T15:19:35.078Z,16.94
2022-10-06T15:22:05.108Z,16.89
2022-10-06T15:24:32.324Z,16.64
2022-10-06T15:27:22.419Z,16.54
2022-10-06T15:29:51.825Z,16.32
2022-10-06T15:32:18.846Z,16.11
2022-10-06T15:34:45.872Z,16.02
2022-10-06T15:37:13.089Z,15.69
2022-10-06T15:39:43.869Z,15.63
2022-10-06T15:42:11.346Z,15.54
2022-10-06T15:44:38.550Z,15.41
2022-10-06T15:47:07.808Z,15.18
2022-10-06T15:49:38.624Z,15.00
2022-10-06T15:52:06.598Z,14.81
2022-10-06T15:54:39.728Z,14.80
2022-10-06T15:57:09.319Z,14.60
2022-10-06T15:59:37.249Z,14.48
2022-10-06T16:02:07.838Z,14.29
2022-10-06T16:04:40.609Z,14.17
2022-10-06T16:07:11.715Z,14.09
2022-10-06T16:09:43.244Z,13.92
2022-10-06T16:16:09.352Z,13.49
2022-10-06T16:18:46.002Z,13.39
2022-10-06T16:21:16.851Z,13.20
2022-10-06T16:23:44.933Z,13.22
2022-10-06T16:26:12.036Z,12.97
2022-10-06T16:28:39.322Z,12.90
2022-10-06T16:31:09.616Z,12.83
2022-10-06T16:33:38.244Z,12.94
2022-10-06T16:36:06.412Z,12.72
2022-10-06T16:38:33.777Z,12.87
2022-10-06T16:41:02.001Z,12.68
2022-10-06T16:43:41.997Z,12.74
2022-10-06T16:46:17.545Z,12.69
2022-10-06T16:48:46.805Z,12.69
2022-10-06T16:51:22.890Z,12.49
2022-10-06T16:53:54.059Z,12.39
2022-10-06T16:56:24.932Z,12.55
2022-10-06T16:58:56.969Z,12.20
2022-10-06T17:01:30.491Z,12.48
2022-10-06T17:04:03.359Z,12.18
2022-10-06T17:06:31.452Z,12.40
2022-10-06T17:08:59.211Z,12.20
2022-10-06T17:11:27.943Z,11.92
2022-10-06T17:13:58.273Z,11.85
2022-10-06T17:16:29.311Z,12.11
2022-10-06T17:18:58.840Z,12.03
2022-10-06T17:21:44.989Z,11.83
2022-10-06T17:24:13.213Z,11.85
2022-10-06T17:26:42.703Z,11.68
2022-10-06T17:29:17.819Z,11.89
2022-10-06T17:31:45.825Z,11.91
2022-10-06T17:34:20.077Z,11.62
2022-10-06T17:36:51.298Z,11.78
2022-10-06T17:39:21.045Z,11.70
2022-10-06T17:41:50.473Z,11.44
2022-10-06T17:44:23.979Z,11.37
2022-10-06T17:46:55.599Z,11.33
2022-10-06T17:50:19.623Z,11.44
2022-10-06T17:53:03.295Z,11.18
2022-10-06T17:55:30.526Z,11.07
2022-10-06T17:57:59.506Z,11.14
2022-10-06T18:00:26.918Z,11.13
2022-10-06T18:03:00.193Z,10.85
2022-10-06T18:05:32.787Z,10.85
2022-10-06T18:08:01.013Z,11.02
2022-10-06T18:10:46.281Z,11.08
2022-10-06T18:13:13.502Z,11.20
2022-10-06T18:15:40.976Z,11.17
2022-10-06T18:18:12.071Z,11.16
2022-10-06T18:20:41.516Z,11.18
2022-10-06T18:23:09.975Z,11.15
2022-10-06T18:25:37.679Z,11.07
2022-10-06T18:28:04.951Z,11.10
2022-10-06T18:30:34.314Z,11.02
2022-10-06T18:36:14.948Z,10.90
2022-10-06T18:38:44.863Z,10.92
2022-10-06T18:41:16.084Z,10.85
2022-10-06T18:43:43.952Z,10.85
2022-10-06T18:46:32.155Z,10.90
2022-10-06T18:53:31.907Z,10.75
2022-10-06T18:59:41.483Z,10.52
2022-10-06T19:02:09.023Z,10.62
2022-10-06T19:04:36.658Z,10.54
2022-10-06T19:07:05.320Z,10.47
2022-10-06T19:09:32.504Z,10.50
2022-10-06T19:12:00.143Z,10.42
2022-10-06T19:14:41.832Z,10.26
2022-10-06T19:17:15.576Z,10.10
2022-10-06T19:19:51.750Z,10.27
2022-10-06T19:44:28.028Z,9.66
2022-10-06T19:46:31.175Z,9.42
2022-10-06T19:55:30.513Z,9.34
2022-10-06T19:58:03.985Z,9.17
2022-10-06T20:00:32.041Z,9.14
2022-10-06T20:02:59.774Z,9.29
2022-10-06T20:05:30.004Z,9.23
2022-10-06T20:07:58.631Z,8.98
2022-10-06T20:10:26.365Z,8.90
2022-10-06T20:12:54.013Z,8.71
2022-10-06T20:15:22.242Z,8.65
2022-10-06T20:17:52.371Z,8.62
2022-10-06T20:20:20.506Z,8.93
2022-10-06T20:22:54.719Z,8.87
2022-10-06T20:25:27.439Z,8.86
2022-10-06T20:28:25.605Z,8.61
2022-10-06T20:30:59.426Z,8.82
2022-10-06T20:33:27.159Z,8.59
2022-10-06T20:41:09.244Z,8.69
2022-10-06T20:51:32.429Z,8.45
2022-10-06T20:56:54.927Z,8.36
2022-10-06T20:59:30.012Z,8.35
2022-10-06T21:02:02.752Z,8.36
2022-10-06T21:04:34.884Z,8.36
2022-10-06T21:07:09.620Z,8.32
2022-10-06T21:09:41.210Z,8.27
2022-10-06T21:12:09.442Z,8.24
2022-10-06T21:14:39.130Z,8.22
2022-10-06T21:17:10.658Z,8.19
2022-10-06T21:19:44.701Z,8.22
2022-10-06T21:22:17.310Z,8.17
2022-10-06T21:24:47.986Z,8.12
2022-10-06T21:27:39.026Z,8.08
2022-10-06T21:30:12.836Z,8.04
2022-10-06T21:32:43.408Z,8.02
2022-10-06T21:35:17.486Z,7.92
2022-10-06T21:37:46.481Z,7.83
2022-10-06T21:40:16.283Z,7.79
2022-10-06T21:42:45.441Z,7.85
2022-10-06T21:45:15.659Z,7.79
2022-10-06T21:47:47.106Z,7.79
2022-10-06T21:50:15.694Z,7.77
2022-10-06T21:52:44.840Z,7.73
2022-10-06T21:55:15.083Z,7.70
2022-10-06T21:57:44.627Z,7.67
2022-10-06T22:00:15.801Z,7.70
2022-10-06T22:02:48.516Z,7.66
2022-10-06T22:05:18.632Z,7.64
2022-10-06T22:07:48.895Z,7.56
2022-10-06T22:10:16.974Z,7.52
2022-10-06T22:12:47.179Z,7.49
2022-10-06T22:15:15.586Z,7.52
2022-10-06T22:17:43.618Z,7.52
2022-10-06T22:20:12.466Z,7.47
2022-10-06T22:22:40.362Z,7.46
2022-10-06T22:25:11.870Z,7.43
2022-10-06T22:27:43.607Z,7.43
2022-10-06T22:30:14.151Z,7.42
2022-10-06T22:32:47.385Z,7.37
2022-10-06T22:35:47.064Z,7.31
2022-10-06T22:38:16.554Z,7.24
2022-10-06T22:40:46.831Z,7.26
2022-10-06T22:43:14.997Z,7.30
2022-10-06T22:45:44.998Z,7.29
2022-10-06T22:48:17.887Z,7.22
2022-10-06T22:50:53.332Z,7.18
2022-10-06T22:53:36.560Z,7.14
2022-10-06T22:56:07.166Z,7.09
2022-10-06T22:58:37.829Z,7.10
2022-10-06T23:01:34.884Z,7.12
2022-10-06T23:04:03.686Z,7.11
2022-10-06T23:06:31.830Z,7.08
2022-10-06T23:09:01.530Z,7.04
2022-10-06T23:11:34.516Z,7.00
2022-10-06T23:14:05.045Z,6.94
2022-10-06T23:16:33.408Z,6.98
2022-10-06T23:19:03.171Z,6.96
2022-10-06T23:21:35.217Z,6.96
2022-10-06T23:24:03.825Z,6.93
2022-10-06T23:26:34.088Z,6.90
2022-10-06T23:29:02.447Z,6.82
2022-10-06T23:31:31.742Z,6.81
2022-10-06T23:34:00.100Z,6.75
2022-10-06T23:36:30.857Z,6.73
2022-10-06T23:39:05.712Z,6.68
2022-10-06T23:41:36.535Z,6.66
2022-10-06T23:44:05.642Z,6.67
2022-10-06T23:46:34.417Z,6.66
2022-10-06T23:49:04.193Z,6.64
2022-10-06T23:51:41.979Z,6.65
2022-10-06T23:54:10.830Z,6.62
2022-10-06T23:56:40.814Z,6.55
2022-10-06T23:59:12.122Z,6.55
